Tunis-Carthage

Airport
ICAO code: 
DTTA
Summary
ICAO Region: 
AFI
Territory: 
Location: 
Tunis, Tunisia,
Coordinates: 
Aerial View: 
36° 51' 3.606" N, 10° 13' 37.918" E
Metar
Observation
DTTA 051100Z 21012KT 9999 FEW023 17/07 Q1012
Station
Tunis-Carthage
Date/Time
2021-12-05 11:00:00
Wind direction
210°
Wind speed
12 kts
Lowest cloud amount
few clouds
Temperature
17°C
Dew point
7°C
Humidity
51%
QNH
1012 hPa
Weather condition
n/a

Description

Tunis - Carthage International Airport is the international airport serving Tunis in Tunisia.

Climatology

(Köppen climate classification BSh)

Runways

Designator Length Width Surface Rops
11/29 2840 45 ASP Yes/Yes
1/19 3200 45 ASP Yes/Yes
Airport map: 
Aerial View: 

Accidents and Serious Incidents at or in the vicinity of DTTA

SKYbrary Partners:

Safety knowledge contributed by: